Terminal Aerodrome Forecast
Issued by NWS Spokane, WA

Home | Current Version | Previous Version | Text Only | Print | Product List | Glossary On
Versions: 1 2 3 4 5 6 7 8 9 10 11 12 13 14 15 16 17 18 19 20 21 22
000
FTUS46 KOTX 261730
TAFGEG
TAF
KGEG 261730Z 2618/2718 06007KT P6SM FEW040 BKN070
     FM262200 13008KT P6SM -RA BKN040 OVC050
     FM270000 12005KT 6SM -RA BR OVC025
     FM270800 19007KT 6SM -RA BR OVC013
     FM271200 21009KT P6SM BKN010=

USA.gov is the U.S. government's official web portal to all federal, state and local government web resources and services.